Time;durP1;ratioP1;P1;durP2;ratioP2;P2;SDS_P1;SDS_P2;PMS_P1;PMS_P2;Temp;Humidity;BMP_temperature;BMP_pressure;BME280_temperature;BME280_humidity;BME280_pressure;Samples;Min_cycle;Max_cycle;Signal;HPM_P1;HPM_P2
2021/01/16 00:02:02;;;;;;;31.15;21.58;;;0.90;95.20;;;;;;5091353;28;20076;-83
2021/01/16 00:04:28;;;;;;;28.10;20.52;;;0.90;95.20;;;;;;5103602;28;20048;-82
2021/01/16 00:06:54;;;;;;;27.55;20.85;;;1.00;95.30;;;;;;5083448;28;20050;-82
2021/01/16 00:09:20;;;;;;;29.10;21.80;;;1.00;95.30;;;;;;5097001;28;20063;-82
2021/01/16 00:11:49;;;;;;;28.50;20.58;;;0.90;95.30;;;;;;5094018;28;20123;-82
2021/01/16 00:14:15;;;;;;;30.70;22.10;;;1.00;95.20;;;;;;5102427;28;20066;-82
2021/01/16 00:16:42;;;;;;;31.08;22.77;;;0.90;95.30;;;;;;5098324;28;20048;-82
2021/01/16 00:19:08;;;;;;;31.08;22.45;;;0.90;95.30;;;;;;5096847;28;20035;-82
2021/01/16 00:21:34;;;;;;;30.15;22.20;;;0.90;95.30;;;;;;5098055;28;20060;-82
2021/01/16 00:24:00;;;;;;;30.65;23.55;;;0.90;95.30;;;;;;5097586;28;20162;-83
2021/01/16 00:26:25;;;;;;;28.58;21.42;;;0.90;95.10;;;;;;5088748;28;20035;-82
2021/01/16 00:28:52;;;;;;;33.45;23.35;;;0.90;95.20;;;;;;5092309;28;20051;-82
2021/01/16 00:31:18;;;;;;;29.65;21.90;;;0.80;95.30;;;;;;5098008;28;20033;-82
2021/01/16 00:33:44;;;;;;;30.52;21.83;;;0.90;95.30;;;;;;5099584;28;20032;-82
2021/01/16 00:36:10;;;;;;;30.17;22.60;;;0.90;95.40;;;;;;5089935;28;20127;-82
2021/01/16 00:38:42;;;;;;;30.70;21.98;;;0.90;95.30;;;;;;5102354;28;20037;-83
2021/01/16 00:41:08;;;;;;;30.48;22.98;;;0.90;95.30;;;;;;5095613;28;20040;-82
2021/01/16 00:43:34;;;;;;;29.13;20.23;;;0.90;95.30;;;;;;5097520;28;20032;-82
2021/01/16 00:46:00;;;;;;;30.25;21.75;;;0.90;95.40;;;;;;5100303;28;20044;-82
2021/01/16 00:48:26;;;;;;;30.10;22.20;;;0.90;95.30;;;;;;5093417;28;20048;-82
2021/01/16 00:50:57;;;;;;;27.38;21.13;;;0.90;95.20;;;;;;5085556;28;20036;-82
2021/01/16 00:53:23;;;;;;;29.38;21.08;;;0.90;95.30;;;;;;5089965;28;20048;-83
2021/01/16 00:55:51;;;;;;;29.52;21.08;;;0.80;95.30;;;;;;5102079;28;20055;-83
2021/01/16 00:58:18;;;;;;;30.85;21.08;;;0.90;95.30;;;;;;5089944;28;20083;-83
2021/01/16 01:00:46;;;;;;;29.23;21.38;;;0.90;95.20;;;;;;5096433;28;20047;-82
2021/01/16 01:03:20;;;;;;;27.58;20.63;;;0.90;95.20;;;;;;5091588;28;20040;-82
2021/01/16 01:05:47;;;;;;;30.02;20.70;;;0.80;95.20;;;;;;5096954;28;20150;-82
2021/01/16 01:08:15;;;;;;;27.88;21.10;;;0.80;95.10;;;;;;5087568;28;20123;-82
2021/01/16 01:10:46;;;;;;;28.73;20.90;;;0.80;95.10;;;;;;5097079;28;20036;-82
2021/01/16 01:13:13;;;;;;;27.25;19.77;;;0.80;95.10;;;;;;5099741;28;20036;-82
2021/01/16 01:15:39;;;;;;;29.40;19.75;;;0.80;95.10;;;;;;5098498;28;20048;-81
2021/01/16 01:18:05;;;;;;;28.98;20.92;;;0.80;95.20;;;;;;5096931;28;20058;-81
2021/01/16 01:20:31;;;;;;;27.83;20.20;;;0.80;95.10;;;;;;5131303;27;20044;-82
2021/01/16 01:22:58;;;;;;;27.08;19.02;;;0.80;95.10;;;;;;5082232;28;20059;-82
2021/01/16 01:25:24;;;;;;;29.35;21.95;;;0.80;94.90;;;;;;5097433;28;20078;-82
2021/01/16 01:27:53;;;;;;;28.55;21.15;;;0.80;94.90;;;;;;5124646;27;20128;-82
2021/01/16 01:30:30;;;;;;;27.52;18.42;;;0.80;95.10;;;;;;5096199;28;20031;-82
2021/01/16 01:32:57;;;;;;;28.65;20.10;;;0.80;95.00;;;;;;5087198;28;20036;-82
2021/01/16 01:35:23;;;;;;;24.25;18.77;;;0.80;94.90;;;;;;5101089;28;20071;-82
2021/01/16 01:37:52;;;;;;;29.05;20.23;;;0.80;95.10;;;;;;5101332;28;20044;-81
2021/01/16 01:40:20;;;;;;;23.77;18.50;;;0.80;95.10;;;;;;5093120;28;20058;-82
2021/01/16 01:42:51;;;;;;;24.27;18.55;;;0.80;95.10;;;;;;5095083;28;20074;-82
2021/01/16 01:45:17;;;;;;;25.10;18.45;;;0.80;95.20;;;;;;5095116;28;20188;-82
2021/01/16 01:47:44;;;;;;;27.98;19.98;;;0.80;94.90;;;;;;5134001;27;20397;-82
2021/01/16 01:50:12;;;;;;;27.00;20.30;;;0.80;95.00;;;;;;5086720;28;20030;-82
2021/01/16 01:52:39;;;;;;;28.50;20.13;;;0.80;95.00;;;;;;5096621;28;20429;-82
2021/01/16 01:55:06;;;;;;;23.60;18.05;;;0.80;95.10;;;;;;5088907;28;20092;-82
2021/01/16 01:57:36;;;;;;;24.70;18.40;;;0.80;95.00;;;;;;5097090;28;20056;-83
2021/01/16 02:00:12;;;;;;;27.63;20.75;;;0.80;95.00;;;;;;5088620;28;20070;-82
2021/01/16 02:02:41;;;;;;;27.52;19.50;;;0.80;94.90;;;;;;5104877;27;20040;-82
2021/01/16 02:05:08;;;;;;;23.02;18.33;;;0.80;94.90;;;;;;5093358;28;20063;-82
2021/01/16 02:07:38;;;;;;;28.67;19.58;;;0.80;94.90;;;;;;5100032;28;20032;-83
2021/01/16 02:10:13;;;;;;;25.45;19.48;;;0.80;94.80;;;;;;5093359;28;20051;-83
2021/01/16 02:12:42;;;;;;;24.95;18.73;;;0.80;94.90;;;;;;5098520;28;20046;-82
2021/01/16 02:15:43;;;;;;;22.88;17.63;;;0.80;94.90;;;;;;5089824;28;20043;-82
2021/01/16 02:18:29;;;;;;;23.52;18.95;;;0.80;95.00;;;;;;5104488;28;20479;-82
2021/01/16 02:20:57;;;;;;;26.23;19.80;;;0.80;94.70;;;;;;5126865;27;20048;-82
2021/01/16 02:23:42;;;;;;;25.85;19.27;;;0.80;94.60;;;;;;5088368;28;20439;-82
2021/01/16 02:26:27;;;;;;;;;;;0.80;94.60;;;;;;5088999;28;20055;-82
2021/01/16 02:29:06;;;;;;;23.77;17.70;;;0.70;94.20;;;;;;5094692;28;20019;-82
2021/01/16 02:31:36;;;;;;;26.98;20.05;;;0.80;94.70;;;;;;5122881;27;20051;-82
2021/01/16 02:34:04;;;;;;;23.85;17.90;;;0.70;94.80;;;;;;5102231;28;20140;-82
2021/01/16 02:37:11;;;;;;;26.70;19.38;;;0.70;94.90;;;;;;5097941;28;20039;-82
2021/01/16 02:40:06;;;;;;;27.80;20.02;;;0.80;94.70;;;;;;5098521;28;20110;-84
2021/01/16 02:43:11;;;;;;;23.75;18.30;;;0.70;94.60;;;;;;5008539;28;20041;-82
2021/01/16 02:45:42;;;;;;;24.65;18.98;;;0.80;94.30;;;;;;4978492;28;20187;-82
2021/01/16 02:48:21;;;;;;;26.35;18.95;;;0.70;94.50;;;;;;4972300;28;20086;-82
2021/01/16 02:50:52;;;;;;;25.15;18.63;;;0.70;94.60;;;;;;4964368;28;20066;-82
2021/01/16 02:53:23;;;;;;;26.17;19.98;;;0.70;95.10;;;;;;4957408;28;20051;-82
2021/01/16 02:55:50;;;;;;;23.73;18.42;;;0.80;95.00;;;;;;4959021;28;20446;-82
2021/01/16 02:58:19;;;;;;;26.90;19.90;;;0.70;94.90;;;;;;4955233;28;20042;-83
2021/01/16 03:00:50;;;;;;;25.27;19.08;;;0.70;94.90;;;;;;4975207;28;20043;-82
2021/01/16 03:03:16;;;;;;;23.40;18.60;;;0.70;94.80;;;;;;4969704;28;20411;-82
2021/01/16 03:05:42;;;;;;;24.90;19.73;;;0.70;94.80;;;;;;4957443;28;20070;-82
2021/01/16 03:08:10;;;;;;;26.20;20.00;;;0.70;94.80;;;;;;4969257;28;20071;-83
2021/01/16 03:10:37;;;;;;;24.98;19.83;;;0.70;94.80;;;;;;4974556;28;20117;-82
2021/01/16 03:13:02;;;;;;;25.70;19.92;;;0.70;94.80;;;;;;4955275;28;20538;-83
2021/01/16 03:15:28;;;;;;;24.70;19.50;;;0.70;94.50;;;;;;4980437;28;20047;-83
2021/01/16 03:17:56;;;;;;;26.08;19.92;;;0.70;94.60;;;;;;5028253;28;20520;-82
2021/01/16 03:20:23;;;;;;;25.05;19.33;;;0.70;94.70;;;;;;5104227;28;20157;-82
2021/01/16 03:22:50;;;;;;;29.48;19.27;;;0.70;94.70;;;;;;5096369;28;20097;-82
2021/01/16 03:25:18;;;;;;;28.30;19.30;;;0.70;94.60;;;;;;5098851;28;20040;-83
2021/01/16 03:27:43;;;;;;;25.00;18.63;;;0.70;94.60;;;;;;5103390;28;20036;-83
2021/01/16 03:30:10;;;;;;;25.40;19.35;;;0.70;94.60;;;;;;5096300;28;20384;-82
2021/01/16 03:32:36;;;;;;;26.80;19.60;;;0.70;94.80;;;;;;5093827;28;20104;-82
2021/01/16 03:35:03;;;;;;;21.27;17.58;;;0.70;94.80;;;;;;5084878;28;20099;-84
2021/01/16 03:37:29;;;;;;;24.20;19.65;;;0.70;94.70;;;;;;5132427;27;20056;-83
2021/01/16 03:39:54;;;;;;;25.25;18.15;;;0.70;94.70;;;;;;5085266;28;20070;-83
2021/01/16 03:42:20;;;;;;;25.20;18.58;;;0.70;94.70;;;;;;5104254;28;20083;-84
2021/01/16 03:44:46;;;;;;;22.35;18.88;;;0.70;94.90;;;;;;5098778;28;20088;-81
2021/01/16 03:47:12;;;;;;;25.63;18.80;;;0.70;94.90;;;;;;5097183;28;20054;-81
2021/01/16 03:49:38;;;;;;;24.13;18.30;;;0.70;94.60;;;;;;5097182;28;20628;-81
2021/01/16 03:52:04;;;;;;;24.73;18.20;;;0.70;94.70;;;;;;5100328;28;20138;-81
2021/01/16 03:54:31;;;;;;;23.35;19.02;;;0.70;94.50;;;;;;5096080;28;20092;-81
2021/01/16 03:56:56;;;;;;;23.45;18.02;;;0.70;94.40;;;;;;5106654;28;20050;-81
2021/01/16 03:59:22;;;;;;;25.98;19.90;;;0.70;94.20;;;;;;5101745;28;20051;-81
2021/01/16 04:01:49;;;;;;;23.52;17.25;;;0.70;94.60;;;;;;5105938;28;20126;-82
2021/01/16 04:04:15;;;;;;;23.98;18.35;;;0.70;94.50;;;;;;5129007;27;20036;-81
2021/01/16 04:06:41;;;;;;;26.33;20.02;;;0.70;94.60;;;;;;5107649;28;20042;-82
2021/01/16 04:09:07;;;;;;;23.50;18.80;;;0.70;94.60;;;;;;5100969;28;20049;-82
2021/01/16 04:11:34;;;;;;;25.52;18.38;;;0.60;94.50;;;;;;5103466;28;20119;-82
2021/01/16 04:13:59;;;;;;;25.08;20.33;;;0.70;94.70;;;;;;5102080;28;20151;-82
2021/01/16 04:16:26;;;;;;;25.20;18.80;;;0.70;94.70;;;;;;5100453;28;20036;-81
2021/01/16 04:18:52;;;;;;;24.20;17.92;;;0.70;94.70;;;;;;5099765;28;20059;-82
2021/01/16 04:21:18;;;;;;;23.20;18.30;;;0.70;94.70;;;;;;5098262;28;20100;-82
2021/01/16 04:23:44;;;;;;;27.13;19.00;;;0.70;94.70;;;;;;5105884;28;20051;-82
2021/01/16 04:26:10;;;;;;;23.92;19.02;;;0.60;94.60;;;;;;5099332;28;20059;-81
2021/01/16 04:28:36;;;;;;;23.42;18.75;;;0.70;94.60;;;;;;5103722;28;20131;-81
2021/01/16 04:31:01;;;;;;;25.35;18.40;;;0.60;94.60;;;;;;5134104;27;20854;-81
2021/01/16 04:33:27;;;;;;;23.35;18.70;;;0.70;94.70;;;;;;5099664;28;20058;-82
2021/01/16 04:35:53;;;;;;;25.63;19.55;;;0.70;94.50;;;;;;5103284;28;20063;-82
2021/01/16 04:38:19;;;;;;;23.52;18.45;;;0.60;94.80;;;;;;5102966;28;20497;-81
2021/01/16 04:40:44;;;;;;;24.63;18.90;;;0.70;94.80;;;;;;5130069;27;20113;-81
2021/01/16 04:43:12;;;;;;;26.60;19.77;;;0.60;94.60;;;;;;5107186;28;20453;-81
2021/01/16 04:45:39;;;;;;;25.75;19.52;;;0.70;94.70;;;;;;5092136;28;20028;-81
2021/01/16 04:48:09;;;;;;;24.83;18.85;;;0.70;94.80;;;;;;5099840;28;20524;-81
2021/01/16 04:50:39;;;;;;;24.48;18.75;;;0.70;94.70;;;;;;5104511;28;20032;-81
2021/01/16 04:53:09;;;;;;;24.23;18.95;;;0.60;94.70;;;;;;5105576;28;20040;-81
2021/01/16 04:55:37;;;;;;;24.27;19.15;;;0.60;94.90;;;;;;5099911;28;20036;-81
2021/01/16 04:58:08;;;;;;;24.13;19.63;;;0.60;94.70;;;;;;5087418;28;20099;-81
2021/01/16 05:00:39;;;;;;;25.60;19.25;;;0.60;94.80;;;;;;5137172;27;20093;-81
2021/01/16 05:03:10;;;;;;;24.73;19.42;;;0.60;94.80;;;;;;5104284;28;20075;-81
2021/01/16 05:05:43;;;;;;;28.23;20.92;;;0.50;94.70;;;;;;5096334;28;20048;-81
2021/01/16 05:08:10;;;;;;;26.38;18.58;;;0.50;94.80;;;;;;5100622;28;20515;-82
2021/01/16 05:10:41;;;;;;;24.75;20.17;;;0.50;94.90;;;;;;5105031;28;20143;-82
2021/01/16 05:13:17;;;;;;;26.40;20.10;;;0.40;94.90;;;;;;5094571;28;20490;-82
2021/01/16 05:15:46;;;;;;;27.58;21.02;;;0.40;94.80;;;;;;5110809;28;20476;-81
2021/01/16 05:18:17;;;;;;;26.90;20.48;;;0.40;94.90;;;;;;5097124;28;20050;-82
2021/01/16 05:20:45;;;;;;;28.10;20.15;;;0.30;94.90;;;;;;5104050;28;20050;-82
2021/01/16 05:23:12;;;;;;;27.50;20.00;;;0.30;94.80;;;;;;5098695;28;20048;-82
2021/01/16 05:25:49;;;;;;;25.25;20.40;;;0.20;94.80;;;;;;5104966;28;20086;-82
2021/01/16 05:28:20;;;;;;;25.95;20.55;;;0.20;94.90;;;;;;5096266;28;20036;-82
2021/01/16 05:30:57;;;;;;;26.52;20.17;;;0.10;94.90;;;;;;5099820;28;20178;-81
2021/01/16 05:33:29;;;;;;;27.17;20.17;;;0.00;95.00;;;;;;5100682;28;20088;-81
2021/01/16 05:35:57;;;;;;;26.25;20.27;;;0.00;94.90;;;;;;5104604;28;20042;-81
2021/01/16 05:38:37;;;;;;;29.17;20.52;;;-0.10;94.90;;;;;;5095257;28;20043;-81
2021/01/16 05:41:08;;;;;;;27.60;19.85;;;-0.10;94.90;;;;;;5108858;28;20037;-82
2021/01/16 05:43:38;;;;;;;28.30;20.27;;;-0.20;94.90;;;;;;5100511;28;20104;-82
2021/01/16 05:46:13;;;;;;;30.20;20.42;;;-0.20;95.00;;;;;;5104722;28;20056;-83
2021/01/16 05:48:39;;;;;;;26.77;19.92;;;-0.30;95.00;;;;;;5124008;27;20048;-82
2021/01/16 05:51:06;;;;;;;31.30;21.92;;;-0.30;95.00;;;;;;5101306;28;20044;-82
2021/01/16 05:53:32;;;;;;;29.30;20.90;;;-0.40;95.00;;;;;;5098618;28;20075;-82
2021/01/16 05:55:59;;;;;;;31.35;22.42;;;-0.40;95.00;;;;;;5103279;28;20367;-82
2021/01/16 05:58:35;;;;;;;27.85;20.92;;;-0.50;95.10;;;;;;5103071;28;20048;-82
2021/01/16 06:01:07;;;;;;;30.85;22.27;;;-0.60;95.10;;;;;;5098904;28;20028;-82
2021/01/16 06:03:37;;;;;;;29.92;21.00;;;-0.60;95.20;;;;;;5099365;28;20087;-82
2021/01/16 06:06:12;;;;;;;32.00;22.02;;;-0.60;95.20;;;;;;5103437;28;20036;-82
2021/01/16 06:08:48;;;;;;;29.77;22.17;;;-0.60;95.40;;;;;;5106900;28;20035;-81
2021/01/16 06:11:15;;;;;;;30.90;22.00;;;-0.50;95.50;;;;;;5105265;28;20044;-82
2021/01/16 06:13:42;;;;;;;33.03;23.13;;;-0.50;95.50;;;;;;5098359;28;20120;-81
2021/01/16 06:16:14;;;;;;;30.42;21.50;;;-0.50;95.60;;;;;;5092963;28;20071;-82
2021/01/16 06:18:52;;;;;;;34.22;23.60;;;-0.50;95.60;;;;;;5106687;28;20031;-82
2021/01/16 06:21:30;;;;;;;33.60;22.33;;;-0.40;95.70;;;;;;5091381;28;20048;-82
2021/01/16 06:23:59;;;;;;;32.13;22.55;;;-0.40;95.80;;;;;;5106340;28;20035;-82
2021/01/16 06:26:26;;;;;;;31.98;21.92;;;-0.40;95.80;;;;;;5098523;28;20031;-82
2021/01/16 06:29:00;;;;;;;30.00;21.55;;;-0.30;95.90;;;;;;5099552;28;20032;-82
2021/01/16 06:31:31;;;;;;;30.95;22.23;;;-0.30;95.90;;;;;;5096031;28;20040;-83
2021/01/16 06:34:39;;;;;;;30.52;22.05;;;-0.30;95.90;;;;;;5102395;28;20087;-81
2021/01/16 06:37:05;;;;;;;31.27;21.15;;;-0.30;95.90;;;;;;5016007;28;20114;-82
2021/01/16 06:39:36;;;;;;;31.50;23.42;;;-0.20;95.90;;;;;;5013610;28;20133;-82
2021/01/16 06:42:07;;;;;;;32.55;23.52;;;-0.20;96.00;;;;;;5027467;28;20083;-82
2021/01/16 06:44:33;;;;;;;30.10;21.42;;;-0.20;96.00;;;;;;5006572;28;20069;-82
2021/01/16 06:47:05;;;;;;;31.95;23.15;;;-0.20;96.00;;;;;;5026250;28;20054;-82
2021/01/16 06:49:32;;;;;;;30.55;22.48;;;-0.10;96.10;;;;;;4989741;28;20069;-84
2021/01/16 06:52:06;;;;;;;28.08;21.00;;;-0.10;96.00;;;;;;4988807;28;20109;-83
2021/01/16 06:54:35;;;;;;;31.30;21.90;;;-0.10;96.10;;;;;;5012707;28;20057;-83
2021/01/16 06:57:12;;;;;;;28.67;21.90;;;-0.10;96.10;;;;;;5006700;28;20048;-82
2021/01/16 06:59:40;;;;;;;32.08;23.52;;;-0.10;96.20;;;;;;5010573;28;20064;-82
2021/01/16 07:02:35;;;;;;;28.35;20.85;;;-0.10;96.20;;;;;;4992527;28;20061;-83
2021/01/16 07:05:06;;;;;;;31.20;21.67;;;0.00;96.20;;;;;;4995230;28;20050;-82
2021/01/16 07:07:32;;;;;;;29.42;22.05;;;0.00;96.30;;;;;;4988219;28;20042;-82
2021/01/16 07:10:02;;;;;;;30.27;21.02;;;0.00;96.20;;;;;;4994036;28;20050;-82
2021/01/16 07:12:28;;;;;;;28.20;21.05;;;0.00;96.30;;;;;;4987620;28;20093;-83
2021/01/16 07:14:54;;;;;;;31.33;21.95;;;0.00;96.20;;;;;;5034373;28;20504;-82
2021/01/16 07:17:24;;;;;;;33.05;23.33;;;0.00;96.20;;;;;;5026622;28;20095;-82
2021/01/16 07:19:51;;;;;;;31.17;22.52;;;0.00;96.30;;;;;;5050049;28;20071;-82
2021/01/16 07:22:17;;;;;;;30.90;22.48;;;0.00;96.30;;;;;;5024505;28;20152;-83
2021/01/16 07:24:44;;;;;;;27.73;22.08;;;0.00;96.30;;;;;;5040873;28;20469;-82
2021/01/16 07:27:14;;;;;;;30.25;23.58;;;0.00;96.30;;;;;;5026653;28;20063;-82
2021/01/16 07:29:41;;;;;;;28.15;21.40;;;0.00;96.20;;;;;;5042582;28;20283;-82
2021/01/16 07:32:14;;;;;;;28.27;21.75;;;0.10;96.30;;;;;;5033506;28;20048;-81
2021/01/16 07:34:45;;;;;;;30.92;22.48;;;0.10;96.30;;;;;;5046311;28;20079;-81
2021/01/16 07:37:12;;;;;;;31.38;22.50;;;0.10;96.20;;;;;;5045146;28;20036;-81
2021/01/16 07:39:42;;;;;;;31.02;23.95;;;0.10;96.30;;;;;;5051013;28;20041;-83
2021/01/16 07:42:14;;;;;;;29.25;22.17;;;0.10;96.30;;;;;;5092758;28;20056;-82
2021/01/16 07:44:45;;;;;;;31.67;21.50;;;0.10;96.30;;;;;;5094566;28;20060;-82
2021/01/16 07:47:22;;;;;;;29.30;21.25;;;0.20;96.30;;;;;;5105256;28;20115;-83
2021/01/16 07:49:56;;;;;;;32.10;24.30;;;0.20;96.30;;;;;;5118996;27;20119;-81
2021/01/16 07:52:28;;;;;;;28.38;22.30;;;0.20;96.30;;;;;;5098230;28;20079;-82
2021/01/16 07:55:05;;;;;;;28.77;20.92;;;0.20;96.20;;;;;;5102827;28;20039;-81
2021/01/16 07:57:33;;;;;;;30.95;22.55;;;0.20;96.20;;;;;;5106024;28;20040;-82
2021/01/16 08:00:04;;;;;;;31.52;23.02;;;0.20;96.30;;;;;;5094537;28;20426;-82
2021/01/16 08:02:34;;;;;;;30.90;21.95;;;0.20;96.30;;;;;;5108926;28;20044;-82
2021/01/16 08:05:12;;;;;;;30.60;22.02;;;0.30;96.30;;;;;;5098462;28;20465;-82
2021/01/16 08:07:56;;;;;;;28.55;21.35;;;0.30;96.30;;;;;;5099350;28;20079;-84
2021/01/16 08:10:24;;;;;;;32.58;22.50;;;0.30;96.20;;;;;;5101170;28;20062;-85
2021/01/16 08:12:56;;;;;;;30.70;22.20;;;0.30;96.10;;;;;;5105036;28;20040;-86
2021/01/16 08:15:30;;;;;;;30.10;22.30;;;0.30;96.20;;;;;;5091516;28;20071;-84
2021/01/16 08:17:59;;;;;;;29.23;22.20;;;0.40;96.20;;;;;;5070156;28;20377;-86
2021/01/16 08:20:34;;;;;;;32.53;22.00;;;0.40;96.20;;;;;;5098690;27;20062;-85
2021/01/16 08:23:03;;;;;;;30.15;22.90;;;0.40;96.10;;;;;;5099556;28;20460;-85
2021/01/16 08:25:31;;;;;;;30.42;23.17;;;0.40;96.10;;;;;;5097786;28;20040;-86
2021/01/16 08:27:58;;;;;;;30.38;22.90;;;0.40;96.00;;;;;;5097236;28;20829;-85
2021/01/16 08:30:35;;;;;;;35.13;23.23;;;0.50;96.10;;;;;;5092022;28;20082;-85
2021/01/16 08:33:12;;;;;;;30.35;22.95;;;0.50;96.10;;;;;;5097974;28;20184;-84
2021/01/16 08:35:41;;;;;;;28.52;22.65;;;0.50;95.90;;;;;;5114270;27;20032;-85
2021/01/16 08:38:19;;;;;;;31.02;22.90;;;0.50;95.90;;;;;;5080519;28;20060;-85
2021/01/16 08:41:02;;;;;;;28.80;22.77;;;0.60;95.90;;;;;;5087662;28;20144;-86
2021/01/16 08:43:29;;;;;;;29.08;21.77;;;0.60;95.90;;;;;;5098662;28;20015;-85
2021/01/16 08:46:20;;;;;;;29.38;22.58;;;0.60;95.90;;;;;;5089732;28;20052;-84
2021/01/16 08:49:05;;;;;;;29.50;22.63;;;0.60;96.00;;;;;;5096583;28;20028;-84
2021/01/16 08:51:31;;;;;;;27.90;22.20;;;0.60;96.00;;;;;;5090760;28;20053;-86
2021/01/16 08:54:22;;;;;;;26.73;22.17;;;0.60;95.90;;;;;;5106860;28;20096;-85
2021/01/16 08:56:53;;;;;;;28.38;22.50;;;0.70;96.00;;;;;;5109494;27;20048;-85
2021/01/16 08:59:33;;;;;;;29.58;23.15;;;0.70;95.90;;;;;;5099979;28;20043;-85
2021/01/16 09:02:07;;;;;;;29.52;22.42;;;0.80;96.10;;;;;;5097653;28;20076;-84
2021/01/16 09:04:35;;;;;;;29.27;22.60;;;0.80;96.00;;;;;;5095146;28;20047;-85
2021/01/16 09:07:21;;;;;;;32.15;23.98;;;0.80;95.80;;;;;;5079125;28;20559;-83
2021/01/16 09:09:55;;;;;;;30.70;23.65;;;0.90;96.00;;;;;;5101045;28;20032;-85
2021/01/16 09:12:38;;;;;;;31.90;23.48;;;0.90;95.70;;;;;;5077991;28;20051;-84
2021/01/16 09:15:35;;;;;;;31.55;24.65;;;1.00;95.50;;;;;;5106687;28;20024;-84
2021/01/16 09:18:15;;;;;;;30.48;22.50;;;1.00;95.50;;;;;;5091936;28;20032;-85
2021/01/16 09:20:44;;;;;;;28.25;21.63;;;1.00;95.40;;;;;;5067417;28;20123;-85
2021/01/16 09:23:19;;;;;;;28.30;22.60;;;1.00;95.40;;;;;;5046233;28;20106;-84
2021/01/16 09:25:52;;;;;;;;;;;1.00;95.30;;;;;;5095728;28;20067;-85
2021/01/16 09:28:57;;;;;;;28.38;22.00;;;1.00;94.80;;;;;;5089577;28;19980;-84
2021/01/16 09:31:39;;;;;;;29.00;21.45;;;1.10;95.40;;;;;;5091636;28;20558;-85
2021/01/16 09:34:17;;;;;;;29.73;23.13;;;1.10;95.30;;;;;;5070257;28;20047;-85
2021/01/16 09:36:55;;;;;;;28.65;23.00;;;1.20;95.60;;;;;;5073448;28;20036;-84
2021/01/16 09:39:26;;;;;;;31.48;22.73;;;1.10;95.20;;;;;;5094903;28;20136;-85
2021/01/16 09:41:53;;;;;;;30.02;23.75;;;1.20;95.40;;;;;;5083238;28;20083;-85
2021/01/16 09:44:44;;;;;;;28.25;22.65;;;1.20;95.40;;;;;;5079470;28;20039;-85
2021/01/16 09:47:38;;;;;;;28.20;22.80;;;1.30;95.50;;;;;;5080232;28;20044;-85
2021/01/16 09:50:15;;;;;;;28.35;21.58;;;1.30;95.30;;;;;;5098173;28;20085;-85
2021/01/16 09:52:50;;;;;;;28.60;22.42;;;1.30;95.20;;;;;;5058490;28;20054;-85
2021/01/16 09:55:21;;;;;;;28.38;22.10;;;1.30;95.30;;;;;;5069767;28;20043;-85
2021/01/16 09:57:47;;;;;;;29.65;22.08;;;1.40;95.10;;;;;;5096125;27;20122;-81
2021/01/16 10:00:24;;;;;;;27.45;22.42;;;1.50;95.30;;;;;;5095725;28;20072;-82
2021/01/16 10:03:04;;;;;;;26.73;22.50;;;1.40;95.30;;;;;;5125888;27;20467;-82
2021/01/16 10:05:35;;;;;;;29.17;22.00;;;1.40;95.30;;;;;;5093970;28;20055;-81
2021/01/16 10:08:02;;;;;;;25.20;21.63;;;1.50;95.10;;;;;;5097012;28;20199;-86
2021/01/16 10:10:48;;;;;;;27.08;22.33;;;1.50;95.10;;;;;;5081503;28;20035;-87
2021/01/16 10:13:32;;;;;;;25.40;20.55;;;1.50;94.90;;;;;;5094918;28;20024;-86
2021/01/16 10:16:04;;;;;;;27.83;21.88;;;1.50;94.90;;;;;;5108126;28;20117;-85
2021/01/16 10:18:31;;;;;;;27.33;22.13;;;1.50;95.00;;;;;;5075782;28;20044;-85
2021/01/16 10:21:11;;;;;;;26.88;21.70;;;1.50;95.10;;;;;;5083233;28;20036;-82
2021/01/16 10:23:42;;;;;;;25.42;20.50;;;1.60;94.90;;;;;;5111998;27;20391;-85
2021/01/16 10:26:13;;;;;;;25.77;21.73;;;1.70;95.00;;;;;;5081212;28;20047;-87
2021/01/16 10:28:48;;;;;;;24.58;20.98;;;1.60;94.60;;;;;;5129693;27;20035;-87
2021/01/16 10:31:21;;;;;;;23.70;19.67;;;1.60;94.70;;;;;;5078646;28;20109;-84
2021/01/16 10:33:47;;;;;;;26.77;21.75;;;1.60;94.80;;;;;;5099132;28;20219;-86
2021/01/16 10:36:18;;;;;;;25.77;21.55;;;1.60;94.80;;;;;;5095522;28;20119;-87
2021/01/16 10:38:52;;;;;;;24.75;20.75;;;1.60;94.90;;;;;;5097773;28;20040;-88
2021/01/16 10:41:39;;;;;;;27.60;23.02;;;1.60;94.60;;;;;;5097845;28;20043;-82
2021/01/16 10:44:10;;;;;;;29.08;22.63;;;1.70;94.70;;;;;;5141415;27;20050;-83
2021/01/16 10:46:44;;;;;;;27.52;22.20;;;1.70;94.50;;;;;;5086777;28;20073;-85
2021/01/16 10:49:17;;;;;;;25.60;21.43;;;1.70;94.70;;;;;;5092822;28;20094;-86
2021/01/16 10:52:03;;;;;;;27.98;20.98;;;1.70;94.40;;;;;;5088302;28;20330;-83
2021/01/16 10:54:30;;;;;;;23.90;20.23;;;1.80;94.50;;;;;;5103033;28;20062;-82
2021/01/16 10:57:04;;;;;;;23.63;20.42;;;1.80;94.40;;;;;;5095635;28;20032;-82
2021/01/16 10:59:35;;;;;;;24.98;20.85;;;1.80;94.40;;;;;;5091415;28;20063;-82
2021/01/16 11:02:14;;;;;;;26.25;21.67;;;1.80;93.80;;;;;;5090787;28;20074;-82
2021/01/16 11:04:42;;;;;;;24.40;21.23;;;1.90;93.90;;;;;;5098405;28;20111;-80
2021/01/16 11:07:28;;;;;;;22.80;18.90;;;1.90;94.10;;;;;;5097947;28;20522;-81
2021/01/16 11:10:10;;;;;;;25.35;21.35;;;1.90;94.10;;;;;;5103172;28;20062;-81
2021/01/16 11:12:37;;;;;;;25.15;20.77;;;2.00;93.90;;;;;;5095607;28;20134;-80
2021/01/16 11:15:26;;;;;;;23.35;19.42;;;1.90;93.60;;;;;;5096790;28;20081;-79
2021/01/16 11:17:56;;;;;;;22.13;18.55;;;2.00;93.60;;;;;;5031179;28;20053;-86
2021/01/16 11:20:28;;;;;;;23.58;19.58;;;2.00;93.50;;;;;;5044033;28;20057;-84
2021/01/16 11:23:02;;;;;;;25.38;19.80;;;2.00;93.50;;;;;;5059881;28;20121;-81
2021/01/16 11:25:47;;;;;;;24.40;19.55;;;2.00;93.40;;;;;;5076475;28;20476;-84
2021/01/16 11:28:17;;;;;;;;;;;2.10;92.90;;;;;;5030247;28;20064;-84
2021/01/16 11:30:48;;;;;;;23.58;17.95;;;2.10;92.00;;;;;;5034760;28;19924;-84
2021/01/16 11:33:17;;;;;;;23.42;18.80;;;2.10;93.00;;;;;;5048336;28;20057;-84
2021/01/16 11:35:44;;;;;;;20.45;17.92;;;2.10;93.00;;;;;;5056566;28;20040;-82
2021/01/16 11:38:37;;;;;;;21.13;17.55;;;2.20;92.80;;;;;;5056707;28;20052;-83
2021/01/16 11:41:04;;;;;;;19.10;16.85;;;2.20;92.40;;;;;;5042717;28;20598;-82
2021/01/16 11:43:30;;;;;;;19.50;16.80;;;2.20;92.70;;;;;;5049054;28;20555;-82
2021/01/16 11:46:03;;;;;;;21.52;16.70;;;2.30;92.80;;;;;;5046396;28;20088;-81
2021/01/16 11:48:31;;;;;;;19.45;15.73;;;2.30;92.60;;;;;;5051812;28;20472;-81
2021/01/16 11:50:57;;;;;;;18.35;15.65;;;2.30;91.80;;;;;;5062170;28;20044;-82
2021/01/16 11:53:23;;;;;;;17.75;14.82;;;2.40;91.70;;;;;;5053741;28;20090;-82
2021/01/16 11:55:50;;;;;;;19.27;14.88;;;2.40;91.60;;;;;;5098480;28;20129;-82
2021/01/16 11:58:19;;;;;;;18.02;15.02;;;2.40;91.80;;;;;;5101417;28;20237;-81
2021/01/16 12:00:47;;;;;;;15.63;13.50;;;2.50;92.10;;;;;;5102342;28;20085;-82
2021/01/16 12:03:15;;;;;;;18.08;15.02;;;2.50;91.20;;;;;;5095482;28;20072;-83
2021/01/16 12:05:41;;;;;;;17.90;14.80;;;2.50;91.00;;;;;;5098326;28;20036;-82
2021/01/16 12:08:08;;;;;;;18.10;13.82;;;2.50;90.70;;;;;;5092109;28;20063;-82
2021/01/16 12:10:35;;;;;;;15.52;13.32;;;2.50;89.20;;;;;;5096535;28;20032;-81
2021/01/16 12:13:09;;;;;;;19.02;15.25;;;2.50;90.00;;;;;;5100268;28;20056;-82
2021/01/16 12:15:35;;;;;;;19.53;14.63;;;2.60;90.20;;;;;;5100240;28;20052;-82
2021/01/16 12:18:02;;;;;;;18.95;15.30;;;2.60;89.50;;;;;;5096806;28;20042;-82
2021/01/16 12:20:28;;;;;;;18.20;15.60;;;2.60;89.10;;;;;;5106063;28;20046;-82
2021/01/16 12:23:00;;;;;;;17.83;14.68;;;2.60;89.50;;;;;;5106355;28;20664;-82
2021/01/16 12:25:34;;;;;;;18.45;14.60;;;2.60;89.10;;;;;;5094811;28;20464;-82
2021/01/16 12:28:05;;;;;;;18.05;14.32;;;2.60;88.10;;;;;;5109707;28;20583;-82
2021/01/16 12:30:38;;;;;;;17.88;15.15;;;2.60;87.90;;;;;;5097335;28;20052;-82
2021/01/16 12:33:04;;;;;;;19.52;14.82;;;2.60;89.10;;;;;;5103436;28;20475;-84
2021/01/16 12:35:30;;;;;;;16.58;14.70;;;2.50;89.00;;;;;;5094258;28;20047;-83
2021/01/16 12:37:56;;;;;;;18.95;15.35;;;2.60;89.00;;;;;;5106594;28;20163;-83
2021/01/16 12:40:24;;;;;;;18.25;15.35;;;2.60;87.60;;;;;;5096761;28;20032;-83
2021/01/16 12:42:50;;;;;;;19.73;14.52;;;2.60;87.90;;;;;;5105016;28;20093;-84
2021/01/16 12:45:17;;;;;;;19.33;15.05;;;2.60;87.70;;;;;;5095990;28;20487;-83
2021/01/16 12:47:47;;;;;;;20.08;15.35;;;2.60;88.70;;;;;;5123081;27;20062;-81
2021/01/16 12:50:13;;;;;;;19.27;15.35;;;2.60;88.00;;;;;;5098600;27;20060;-81
2021/01/16 12:52:44;;;;;;;19.40;14.88;;;2.60;87.00;;;;;;5099252;28;20036;-81
2021/01/16 12:55:13;;;;;;;20.23;14.57;;;2.60;86.90;;;;;;5095019;28;20136;-83
2021/01/16 12:57:41;;;;;;;19.33;15.00;;;2.60;87.40;;;;;;5098994;28;20070;-83